Time;durP1;ratioP1;P1;durP2;ratioP2;P2;SDS_P1;SDS_P2;PMS_P1;PMS_P2;Temp;Humidity;BMP_temperature;BMP_pressure;BME280_temperature;BME280_humidity;BME280_pressure;Samples;Min_cycle;Max_cycle;Signal;HPM_P1;HPM_P2
2022/04/16 00:00:23;;;;;;;4.75;2.55;;;10.10;99.90;;;;;;5005089;28;20595;-69
2022/04/16 00:02:49;;;;;;;3.08;2.17;;;10.10;99.90;;;;;;5003863;28;20032;-69
2022/04/16 00:05:16;;;;;;;5.93;2.42;;;10.00;99.90;;;;;;5001688;28;20026;-69
2022/04/16 00:07:42;;;;;;;3.85;2.47;;;10.00;99.90;;;;;;5003285;28;20475;-69
2022/04/16 00:10:08;;;;;;;3.55;2.42;;;10.00;99.90;;;;;;5005654;28;20034;-69
2022/04/16 00:12:34;;;;;;;3.28;2.13;;;10.00;99.90;;;;;;5020930;28;20033;-69
2022/04/16 00:15:00;;;;;;;5.05;2.92;;;10.00;99.90;;;;;;5016397;28;20045;-69
2022/04/16 00:17:26;;;;;;;5.50;2.55;;;9.90;99.90;;;;;;5004653;28;20105;-69
2022/04/16 00:19:52;;;;;;;4.13;2.30;;;9.90;99.90;;;;;;4999590;28;20026;-70
2022/04/16 00:22:18;;;;;;;3.90;2.38;;;9.90;99.90;;;;;;5000571;28;20030;-69
2022/04/16 00:24:50;;;;;;;2.85;2.00;;;9.90;99.90;;;;;;5003352;28;20033;-69
2022/04/16 00:27:16;;;;;;;4.63;2.40;;;9.80;99.90;;;;;;5001847;28;20391;-69
2022/04/16 00:29:41;;;;;;;4.43;2.53;;;9.90;99.90;;;;;;5001184;28;20033;-69
2022/04/16 00:32:08;;;;;;;5.55;2.65;;;9.80;99.90;;;;;;4998673;28;21089;-69
2022/04/16 00:34:34;;;;;;;6.32;2.17;;;9.80;99.90;;;;;;4999458;28;20033;-69
2022/04/16 00:37:00;;;;;;;7.88;2.78;;;9.70;99.90;;;;;;4998977;28;20033;-70
2022/04/16 00:39:26;;;;;;;5.95;2.55;;;9.70;99.90;;;;;;5002932;28;20026;-70
2022/04/16 00:41:52;;;;;;;7.70;3.15;;;9.70;99.90;;;;;;5001964;28;20027;-70
2022/04/16 00:44:27;;;;;;;5.05;3.03;;;9.60;99.90;;;;;;5017637;28;20482;-69
2022/04/16 00:46:53;;;;;;;5.85;2.75;;;9.60;99.90;;;;;;5002371;28;20161;-71
2022/04/16 00:49:28;;;;;;;5.57;3.60;;;9.50;99.90;;;;;;5003948;28;20029;-71
2022/04/16 00:51:53;;;;;;;6.15;3.13;;;9.50;99.90;;;;;;5003693;28;20038;-71
2022/04/16 00:54:19;;;;;;;6.05;3.03;;;9.50;99.90;;;;;;5007498;28;20095;-71
2022/04/16 00:56:45;;;;;;;5.30;3.10;;;9.40;99.90;;;;;;5004389;28;20753;-71
2022/04/16 00:59:13;;;;;;;5.50;3.10;;;9.40;99.90;;;;;;5001946;28;20033;-71
2022/04/16 01:01:39;;;;;;;6.40;3.20;;;9.30;99.90;;;;;;5004997;28;20034;-71
2022/04/16 01:04:11;;;;;;;10.27;3.72;;;9.30;99.90;;;;;;5003986;28;20026;-71
2022/04/16 01:06:42;;;;;;;7.07;3.08;;;9.20;99.90;;;;;;5005077;28;20037;-70
2022/04/16 01:09:07;;;;;;;4.68;3.08;;;9.20;99.90;;;;;;5004858;28;20028;-70
2022/04/16 01:11:36;;;;;;;6.55;2.50;;;9.20;99.90;;;;;;5005903;28;20377;-71
2022/04/16 01:14:04;;;;;;;5.13;3.22;;;9.20;99.90;;;;;;5003027;28;20474;-70
2022/04/16 01:16:31;;;;;;;6.32;2.88;;;9.10;99.90;;;;;;5003969;28;20403;-71
2022/04/16 01:18:57;;;;;;;6.43;3.28;;;9.10;99.90;;;;;;5007444;28;20064;-71
2022/04/16 01:21:27;;;;;;;4.93;2.45;;;9.10;99.90;;;;;;5005771;28;20023;-71
2022/04/16 01:23:52;;;;;;;3.63;2.65;;;9.00;99.90;;;;;;5000432;28;20033;-71
2022/04/16 01:26:22;;;;;;;3.88;2.80;;;9.00;99.90;;;;;;5006803;28;20092;-71
2022/04/16 01:28:48;;;;;;;5.20;2.55;;;9.00;99.90;;;;;;5001944;28;20030;-70
2022/04/16 01:31:14;;;;;;;5.28;3.05;;;9.00;99.90;;;;;;5002514;28;20034;-71
2022/04/16 01:33:39;;;;;;;5.75;3.28;;;8.90;99.90;;;;;;5000523;28;20449;-70
2022/04/16 01:36:05;;;;;;;4.38;3.00;;;8.90;99.90;;;;;;5001281;28;20030;-71
2022/04/16 01:38:37;;;;;;;9.60;2.88;;;8.90;99.90;;;;;;5003118;28;20029;-71
2022/04/16 01:41:08;;;;;;;5.32;2.88;;;8.90;99.90;;;;;;5003212;28;20029;-70
2022/04/16 01:43:34;;;;;;;7.63;3.20;;;8.90;99.90;;;;;;5003676;28;20038;-69
2022/04/16 01:46:04;;;;;;;6.65;2.97;;;8.90;99.90;;;;;;5003618;28;20030;-70
2022/04/16 01:48:32;;;;;;;5.68;2.97;;;8.80;99.90;;;;;;5003807;28;20029;-70
2022/04/16 01:51:01;;;;;;;5.70;3.10;;;8.80;99.90;;;;;;5003391;28;20036;-71
2022/04/16 01:53:26;;;;;;;5.85;3.17;;;8.80;99.90;;;;;;5002465;28;20505;-69
2022/04/16 01:55:55;;;;;;;7.18;3.50;;;8.70;99.90;;;;;;5004883;28;20073;-70
2022/04/16 01:58:21;;;;;;;5.03;3.10;;;8.70;99.90;;;;;;5005391;28;20479;-70
2022/04/16 02:00:47;;;;;;;4.55;2.95;;;8.60;99.90;;;;;;5002072;28;20075;-70
2022/04/16 02:03:14;;;;;;;5.60;2.88;;;8.50;99.90;;;;;;5002903;28;20022;-69
2022/04/16 02:05:46;;;;;;;6.13;2.90;;;8.50;99.90;;;;;;5000838;28;20145;-70
2022/04/16 02:08:12;;;;;;;5.30;3.33;;;8.40;99.90;;;;;;5006471;28;20046;-71
2022/04/16 02:10:38;;;;;;;6.82;3.45;;;8.40;99.90;;;;;;4999732;28;20034;-71
2022/04/16 02:13:04;;;;;;;7.20;3.08;;;8.30;99.90;;;;;;5006197;28;20065;-72
2022/04/16 02:15:30;;;;;;;5.03;3.00;;;8.30;99.90;;;;;;5005042;28;20068;-71
2022/04/16 02:17:56;;;;;;;7.95;3.25;;;8.20;99.90;;;;;;5005176;28;20893;-71
2022/04/16 02:20:23;;;;;;;8.27;3.70;;;8.20;99.90;;;;;;5002192;28;20029;-71
2022/04/16 02:22:49;;;;;;;7.00;3.33;;;8.20;99.90;;;;;;5003072;28;20028;-71
2022/04/16 02:25:17;;;;;;;7.03;3.10;;;8.20;99.90;;;;;;5003498;28;20457;-71
2022/04/16 02:27:43;;;;;;;7.55;3.35;;;8.20;99.90;;;;;;5005087;28;20037;-71
2022/04/16 02:30:12;;;;;;;5.28;2.90;;;8.30;99.90;;;;;;5003823;28;20140;-71
2022/04/16 02:32:39;;;;;;;5.05;3.28;;;8.40;99.90;;;;;;5003035;28;20030;-71
2022/04/16 02:35:07;;;;;;;3.75;2.85;;;8.40;99.90;;;;;;5001585;28;20026;-72
2022/04/16 02:37:32;;;;;;;5.43;2.97;;;8.40;99.90;;;;;;5002300;28;20033;-71
2022/04/16 02:39:58;;;;;;;5.20;2.47;;;8.40;99.90;;;;;;5000776;28;20021;-72
2022/04/16 02:42:24;;;;;;;5.43;2.70;;;8.50;99.90;;;;;;5001462;28;20561;-73
2022/04/16 02:47:33;;;;;;;4.82;2.67;;;8.50;99.90;;;;;;5000146;28;20033;-72
2022/04/16 02:49:59;;;;;;;4.43;2.97;;;8.50;99.90;;;;;;5005872;28;20030;-72
2022/04/16 02:52:25;;;;;;;5.22;2.90;;;8.50;99.90;;;;;;5001539;28;20403;-72
2022/04/16 02:54:52;;;;;;;3.67;2.30;;;8.50;99.90;;;;;;5003553;28;20647;-72
2022/04/16 02:57:19;;;;;;;5.18;2.45;;;8.50;99.90;;;;;;5001771;28;20056;-72
2022/04/16 02:59:46;;;;;;;4.90;2.60;;;8.50;99.90;;;;;;5005934;28;20053;-72
2022/04/16 03:02:12;;;;;;;7.57;2.58;;;8.40;99.90;;;;;;5008973;28;20034;-73
2022/04/16 03:04:38;;;;;;;6.72;2.90;;;8.40;99.90;;;;;;5005797;28;20121;-69
2022/04/16 03:07:05;;;;;;;3.95;2.50;;;8.30;99.90;;;;;;5008182;28;20113;-72
2022/04/16 03:09:30;;;;;;;4.03;2.70;;;8.30;99.90;;;;;;5005291;28;20040;-72
2022/04/16 03:11:57;;;;;;;4.18;2.33;;;8.30;99.90;;;;;;5004781;28;20029;-72
2022/04/16 03:19:51;;;;;;;4.22;2.70;;;8.10;99.90;;;;;;5007742;28;20033;-72
2022/04/16 03:22:17;;;;;;;3.97;2.70;;;8.10;99.90;;;;;;5005024;28;20029;-72
2022/04/16 03:24:42;;;;;;;4.70;2.70;;;8.00;99.90;;;;;;5008606;28;20386;-72
2022/04/16 03:27:08;;;;;;;7.05;2.70;;;7.90;99.90;;;;;;5003624;28;20029;-73
2022/04/16 03:29:34;;;;;;;5.03;2.67;;;7.80;99.90;;;;;;5001814;28;20025;-72
2022/04/16 03:32:00;;;;;;;7.45;2.47;;;7.80;99.90;;;;;;5008194;28;20029;-72
2022/04/16 03:34:26;;;;;;;3.45;2.10;;;7.80;99.90;;;;;;5005692;28;20391;-70
2022/04/16 03:36:52;;;;;;;5.90;2.92;;;7.70;99.90;;;;;;5007693;28;20030;-72
2022/04/16 03:39:20;;;;;;;8.02;3.00;;;7.70;99.90;;;;;;5009421;28;20398;-72
2022/04/16 03:41:47;;;;;;;5.68;2.72;;;7.70;99.90;;;;;;5008162;28;20054;-72
2022/04/16 03:44:12;;;;;;;4.18;2.72;;;7.70;99.90;;;;;;5008241;28;20701;-72
2022/04/16 03:46:38;;;;;;;5.38;3.10;;;7.60;99.90;;;;;;5007174;28;20166;-72
2022/04/16 03:49:04;;;;;;;4.22;2.83;;;7.60;99.90;;;;;;5006796;28;20088;-73
2022/04/16 03:51:29;;;;;;;6.97;3.10;;;7.60;99.90;;;;;;5001709;28;20483;-72
2022/04/16 03:53:55;;;;;;;8.80;3.47;;;7.60;99.90;;;;;;5004310;28;20034;-72
2022/04/16 04:01:49;;;;;;;7.63;3.30;;;7.40;99.90;;;;;;5007987;28;20550;-72
2022/04/16 04:04:15;;;;;;;5.68;3.03;;;7.50;99.90;;;;;;5005021;28;20029;-73
2022/04/16 04:06:41;;;;;;;6.20;2.42;;;7.50;99.90;;;;;;5007956;28;20160;-72
2022/04/16 04:09:09;;;;;;;7.25;3.00;;;7.50;99.90;;;;;;5004820;28;20032;-71
2022/04/16 04:11:34;;;;;;;4.97;3.00;;;7.40;99.90;;;;;;5004463;28;20030;-72
2022/04/16 04:14:00;;;;;;;4.82;2.90;;;7.40;99.90;;;;;;5007012;28;20036;-72
2022/04/16 04:16:26;;;;;;;4.43;2.70;;;7.40;99.90;;;;;;5005353;28;20040;-72
2022/04/16 04:18:51;;;;;;;7.07;2.92;;;7.40;99.90;;;;;;5006074;28;20030;-72
2022/04/16 04:21:17;;;;;;;7.78;3.22;;;7.40;99.90;;;;;;5001314;28;20030;-73
2022/04/16 04:23:43;;;;;;;4.50;3.05;;;7.40;99.90;;;;;;5003018;28;20397;-70
2022/04/16 04:26:08;;;;;;;5.60;3.20;;;7.40;99.90;;;;;;4996595;28;20038;-71
2022/04/16 04:28:34;;;;;;;4.55;2.65;;;7.30;99.90;;;;;;5003376;28;20035;-68
2022/04/16 04:31:00;;;;;;;6.00;3.15;;;7.40;99.90;;;;;;5003679;28;20077;-71
2022/04/16 04:33:25;;;;;;;4.25;2.80;;;7.40;99.90;;;;;;5000798;28;20079;-72
2022/04/16 04:35:51;;;;;;;5.07;2.65;;;7.40;99.90;;;;;;4999385;28;20113;-71
2022/04/16 04:38:17;;;;;;;5.47;2.67;;;7.40;99.90;;;;;;5003842;28;20100;-73
2022/04/16 04:40:42;;;;;;;6.43;3.03;;;7.40;99.90;;;;;;5014635;28;20028;-72
2022/04/16 04:43:08;;;;;;;7.53;2.70;;;7.40;99.90;;;;;;5004675;28;20084;-72
2022/04/16 04:45:33;;;;;;;7.85;3.47;;;7.40;99.90;;;;;;5001021;28;20041;-72
2022/04/16 04:47:59;;;;;;;6.18;3.17;;;7.50;99.90;;;;;;5002405;28;20034;-70
2022/04/16 04:50:25;;;;;;;4.40;3.10;;;7.50;99.90;;;;;;4993997;28;20034;-72
2022/04/16 04:52:50;;;;;;;5.53;3.17;;;7.60;99.90;;;;;;4994790;28;20052;-72
2022/04/16 04:55:16;;;;;;;4.88;2.90;;;7.70;99.90;;;;;;4989503;28;20029;-71
2022/04/16 04:57:44;;;;;;;6.68;3.10;;;7.70;99.90;;;;;;4999968;28;20026;-73
2022/04/16 05:00:14;;;;;;;6.05;3.20;;;7.70;99.90;;;;;;5003458;28;20026;-72
2022/04/16 05:02:45;;;;;;;4.03;2.78;;;7.70;99.90;;;;;;5012039;28;20564;-72
2022/04/16 05:05:11;;;;;;;5.22;2.75;;;7.80;99.90;;;;;;5003652;28;21730;-72
2022/04/16 05:07:37;;;;;;;7.43;2.95;;;7.80;99.90;;;;;;5004253;28;20379;-72
2022/04/16 05:10:03;;;;;;;5.13;2.75;;;7.90;99.90;;;;;;5003433;28;20070;-73
2022/04/16 05:12:29;;;;;;;4.10;2.67;;;7.90;99.90;;;;;;5001954;28;20172;-73
2022/04/16 05:14:55;;;;;;;4.93;2.42;;;8.00;99.90;;;;;;5004243;28;20066;-72
2022/04/16 05:17:20;;;;;;;6.03;3.28;;;8.00;99.90;;;;;;4998869;28;20034;-72
2022/04/16 05:19:46;;;;;;;4.95;3.05;;;8.20;99.90;;;;;;5003649;28;20097;-72
2022/04/16 05:22:17;;;;;;;7.20;3.25;;;8.40;99.90;;;;;;5001782;28;20026;-71
2022/04/16 05:24:46;;;;;;;4.97;2.55;;;8.50;99.90;;;;;;5004545;28;20034;-71
2022/04/16 05:27:18;;;;;;;4.68;2.75;;;8.70;99.90;;;;;;5006249;28;20036;-71
2022/04/16 05:29:56;;;;;;;4.65;2.95;;;8.80;99.90;;;;;;5005046;28;20122;-71
2022/04/16 05:32:23;;;;;;;4.53;2.78;;;8.80;99.90;;;;;;5002743;28;20458;-68
2022/04/16 05:34:58;;;;;;;4.72;2.92;;;8.80;99.90;;;;;;5017993;28;20025;-73
2022/04/16 05:37:24;;;;;;;4.20;2.78;;;8.90;99.90;;;;;;4996630;28;20494;-73
2022/04/16 05:39:49;;;;;;;5.10;2.85;;;8.90;99.90;;;;;;5002818;28;20076;-72
2022/04/16 05:42:15;;;;;;;5.00;2.83;;;8.90;99.90;;;;;;5016496;28;20107;-73
2022/04/16 05:44:41;;;;;;;5.15;3.05;;;8.90;99.90;;;;;;5005770;28;20112;-73
2022/04/16 05:47:06;;;;;;;5.25;3.40;;;8.80;99.90;;;;;;5005578;28;20030;-72
2022/04/16 05:49:32;;;;;;;6.55;3.35;;;8.80;99.90;;;;;;5007603;28;20037;-74
2022/04/16 05:51:58;;;;;;;4.90;3.13;;;8.80;99.90;;;;;;5004512;28;20034;-74
2022/04/16 05:54:24;;;;;;;3.92;2.70;;;8.80;99.90;;;;;;5009921;28;20533;-73
2022/04/16 05:56:49;;;;;;;6.13;2.63;;;8.70;99.90;;;;;;5003931;28;20034;-74
2022/04/16 05:59:15;;;;;;;3.95;2.35;;;8.60;99.90;;;;;;5008044;28;20022;-75
2022/04/16 06:01:41;;;;;;;3.67;2.58;;;8.60;99.90;;;;;;5002190;28;20480;-75
2022/04/16 06:04:07;;;;;;;4.35;2.78;;;8.70;99.90;;;;;;5003589;28;20076;-75
2022/04/16 06:06:33;;;;;;;5.80;3.10;;;8.70;99.90;;;;;;5004056;28;20457;-75
2022/04/16 06:08:59;;;;;;;4.38;3.05;;;8.80;99.90;;;;;;5000056;28;20026;-74
2022/04/16 06:11:28;;;;;;;4.97;3.00;;;8.90;99.90;;;;;;5000336;28;20034;-74
2022/04/16 06:13:53;;;;;;;4.60;2.95;;;9.00;99.90;;;;;;5002860;28;20026;-75
2022/04/16 06:16:19;;;;;;;7.00;3.25;;;9.10;99.90;;;;;;5003661;28;20026;-75
2022/04/16 06:18:45;;;;;;;4.30;2.95;;;9.30;99.90;;;;;;4999878;28;20037;-74
2022/04/16 06:21:10;;;;;;;4.13;2.63;;;9.30;99.90;;;;;;5008486;28;20180;-73
2022/04/16 06:23:36;;;;;;;5.07;2.80;;;9.30;99.90;;;;;;5003909;28;20026;-74
2022/04/16 06:26:02;;;;;;;4.47;2.78;;;9.40;99.90;;;;;;5001919;28;20030;-71
2022/04/16 06:28:30;;;;;;;5.30;2.85;;;9.50;99.90;;;;;;5001818;28;20033;-71
2022/04/16 06:30:56;;;;;;;4.63;2.78;;;9.60;99.90;;;;;;5003532;28;20022;-71
2022/04/16 06:33:21;;;;;;;4.20;3.17;;;9.80;99.90;;;;;;5007808;28;20087;-71
2022/04/16 06:35:47;;;;;;;4.88;3.15;;;9.80;99.90;;;;;;5004856;28;20108;-70
2022/04/16 06:38:13;;;;;;;5.78;3.20;;;9.90;99.90;;;;;;4998105;28;20022;-71
2022/04/16 06:40:42;;;;;;;6.25;3.40;;;9.90;99.90;;;;;;5010500;28;20025;-71
2022/04/16 06:43:08;;;;;;;4.55;3.13;;;10.00;99.90;;;;;;4998642;28;20030;-72
2022/04/16 06:45:34;;;;;;;6.68;2.90;;;9.90;99.90;;;;;;5008324;28;20030;-71
2022/04/16 06:48:00;;;;;;;4.55;2.97;;;9.90;99.90;;;;;;5062706;23;20132;-67
2022/04/16 06:50:26;;;;;;;5.82;2.90;;;9.90;99.90;;;;;;5055304;28;20075;-67
2022/04/16 06:52:55;;;;;;;6.07;3.35;;;9.90;99.90;;;;;;5054951;28;20033;-67
2022/04/16 06:55:21;;;;;;;4.63;2.58;;;9.90;99.90;;;;;;5054935;28;20056;-67
2022/04/16 06:57:50;;;;;;;7.30;3.28;;;9.90;99.90;;;;;;5055383;28;20025;-67
2022/04/16 07:00:15;;;;;;;5.75;3.00;;;9.80;99.90;;;;;;5042701;28;20025;-68
2022/04/16 07:02:41;;;;;;;4.45;3.33;;;9.90;99.90;;;;;;5052066;28;20028;-68
2022/04/16 07:05:07;;;;;;;6.07;3.47;;;9.90;99.90;;;;;;5036796;28;20030;-68
2022/04/16 07:07:33;;;;;;;8.60;3.85;;;10.00;99.90;;;;;;5034670;28;20091;-67
2022/04/16 07:09:59;;;;;;;5.50;3.58;;;9.90;99.90;;;;;;5034476;28;20060;-67
2022/04/16 07:12:25;;;;;;;5.50;3.08;;;9.90;99.90;;;;;;5042585;28;20021;-68
2022/04/16 07:14:51;;;;;;;6.55;3.58;;;10.00;99.90;;;;;;5054492;28;20036;-67
2022/04/16 07:17:16;;;;;;;5.78;3.78;;;10.10;99.90;;;;;;5053094;28;20086;-67
2022/04/16 07:19:42;;;;;;;6.68;3.55;;;10.20;99.90;;;;;;5054930;28;20056;-67
2022/04/16 07:22:08;;;;;;;5.85;3.47;;;10.20;99.90;;;;;;5053809;28;20515;-68
2022/04/16 07:24:37;;;;;;;6.03;3.63;;;10.20;99.90;;;;;;5072294;28;20468;-67
2022/04/16 07:27:04;;;;;;;6.38;3.67;;;10.20;99.90;;;;;;5074315;28;20057;-67
2022/04/16 07:29:33;;;;;;;7.07;3.72;;;10.30;99.90;;;;;;5074367;28;20033;-67
2022/04/16 07:31:58;;;;;;;6.38;4.07;;;10.40;99.90;;;;;;5074183;28;20032;-67
2022/04/16 07:34:25;;;;;;;7.15;4.03;;;10.40;99.90;;;;;;5074133;28;20025;-67
2022/04/16 07:36:54;;;;;;;5.32;3.50;;;10.50;99.90;;;;;;5074048;28;20020;-67
2022/04/16 07:39:26;;;;;;;9.52;4.25;;;10.60;99.90;;;;;;5072955;28;20150;-67
2022/04/16 07:41:51;;;;;;;6.10;3.72;;;10.60;99.90;;;;;;5074222;28;20020;-67
2022/04/16 07:44:19;;;;;;;5.78;3.70;;;10.60;99.90;;;;;;5073093;28;20401;-66
2022/04/16 07:46:46;;;;;;;5.45;3.65;;;10.60;99.90;;;;;;5074317;28;20564;-66
2022/04/16 07:49:11;;;;;;;6.18;3.60;;;10.60;99.90;;;;;;5074564;28;20484;-67
2022/04/16 07:51:37;;;;;;;6.43;4.28;;;10.60;99.90;;;;;;5071439;28;20036;-67
2022/04/16 07:54:03;;;;;;;7.82;3.88;;;10.60;99.90;;;;;;5052803;28;20033;-66
2022/04/16 07:56:28;;;;;;;6.72;4.22;;;10.70;99.90;;;;;;5052679;28;20485;-66
2022/04/16 07:58:55;;;;;;;6.75;3.90;;;10.70;99.90;;;;;;5053581;28;20021;-67
2022/04/16 08:01:21;;;;;;;6.65;3.75;;;10.80;99.90;;;;;;5054021;28;20017;-67
2022/04/16 08:03:47;;;;;;;7.85;4.05;;;10.80;99.90;;;;;;5054006;28;20021;-67
2022/04/16 08:06:12;;;;;;;7.28;4.43;;;10.90;99.90;;;;;;5053949;28;20104;-66
2022/04/16 08:08:38;;;;;;;8.00;4.20;;;11.00;99.90;;;;;;5052745;28;20072;-67
2022/04/16 08:11:04;;;;;;;6.15;3.92;;;10.90;99.90;;;;;;5045063;28;20382;-68
2022/04/16 08:13:30;;;;;;;4.90;3.55;;;11.00;99.90;;;;;;5052710;28;20028;-68
2022/04/16 08:15:56;;;;;;;6.65;3.63;;;11.00;99.90;;;;;;5053584;28;20070;-68
2022/04/16 08:18:21;;;;;;;5.32;3.38;;;11.10;99.90;;;;;;5052029;28;20032;-67
2022/04/16 08:20:47;;;;;;;7.60;3.78;;;11.00;99.90;;;;;;5040805;28;20059;-68
2022/04/16 08:23:14;;;;;;;5.38;3.63;;;11.10;99.90;;;;;;5053699;28;20059;-67
2022/04/16 08:28:06;;;;;;;5.93;3.60;;;11.00;99.90;;;;;;5038197;28;20104;-68
2022/04/16 08:30:32;;;;;;;6.65;3.45;;;11.00;99.90;;;;;;5050693;28;20136;-67
2022/04/16 08:33:15;;;;;;;6.82;3.75;;;11.10;99.90;;;;;;5053185;28;20056;-67
2022/04/16 08:35:47;;;;;;;5.75;3.35;;;11.00;99.90;;;;;;5046609;28;20074;-67
2022/04/16 08:38:13;;;;;;;6.50;3.22;;;11.00;99.90;;;;;;5051682;28;20021;-68
2022/04/16 08:40:39;;;;;;;8.30;4.40;;;11.00;99.90;;;;;;5050622;28;20082;-67
2022/04/16 08:43:10;;;;;;;6.32;3.97;;;11.00;99.90;;;;;;5050759;28;20033;-68
2022/04/16 08:45:37;;;;;;;5.65;3.92;;;10.90;99.90;;;;;;5050906;28;20417;-67
2022/04/16 08:48:03;;;;;;;7.03;3.80;;;10.90;99.90;;;;;;5045444;28;20033;-67
2022/04/16 08:50:29;;;;;;;8.48;4.00;;;11.00;99.90;;;;;;5052907;28;20131;-67
2022/04/16 08:52:57;;;;;;;6.47;3.88;;;11.00;99.90;;;;;;5052741;28;20037;-68
2022/04/16 08:55:23;;;;;;;5.85;3.78;;;11.10;99.90;;;;;;5052289;28;20028;-67
2022/04/16 08:57:48;;;;;;;7.30;4.25;;;11.10;99.90;;;;;;5052581;28;20029;-66
2022/04/16 09:00:15;;;;;;;7.78;4.15;;;11.20;99.90;;;;;;5052767;28;20027;-66
2022/04/16 09:02:52;;;;;;;7.60;4.43;;;11.10;99.90;;;;;;5052682;28;20036;-66
2022/04/16 09:05:19;;;;;;;6.72;4.38;;;11.10;99.90;;;;;;5051328;28;20065;-66
2022/04/16 09:07:56;;;;;;;7.60;4.65;;;11.10;99.90;;;;;;5051255;28;20496;-66
2022/04/16 09:10:25;;;;;;;7.47;4.28;;;11.10;99.90;;;;;;5052998;28;20067;-66
2022/04/16 09:12:53;;;;;;;6.90;4.25;;;11.20;99.90;;;;;;5052584;28;20029;-66
2022/04/16 09:15:19;;;;;;;6.63;4.07;;;11.30;99.90;;;;;;5052041;28;20029;-66
2022/04/16 09:18:02;;;;;;;7.15;4.38;;;11.30;99.90;;;;;;5052143;28;20075;-66
2022/04/16 09:20:47;;;;;;;7.70;4.43;;;11.50;99.90;;;;;;5052421;28;20032;-66
2022/04/16 09:23:21;;;;;;;8.05;4.50;;;11.50;99.90;;;;;;5052253;28;20273;-66
2022/04/16 09:25:47;;;;;;;7.10;4.95;;;11.50;99.90;;;;;;5052458;28;20021;-66
2022/04/16 09:28:14;;;;;;;6.80;4.30;;;11.40;99.90;;;;;;5052508;28;20060;-66
2022/04/16 09:30:52;;;;;;;7.93;4.78;;;11.40;99.90;;;;;;5052096;28;20025;-66
2022/04/16 09:33:18;;;;;;;6.45;4.05;;;11.50;99.90;;;;;;5052147;28;20021;-66
2022/04/16 09:35:46;;;;;;;7.60;4.72;;;11.60;99.90;;;;;;5051038;28;20079;-68
2022/04/16 09:38:15;;;;;;;6.68;4.13;;;11.70;99.90;;;;;;5052126;28;20488;-67
2022/04/16 09:40:41;;;;;;;6.88;4.25;;;11.80;99.90;;;;;;5052164;28;20477;-67
2022/04/16 09:43:08;;;;;;;5.93;3.13;;;11.90;99.90;;;;;;5050549;28;20398;-66
2022/04/16 09:45:38;;;;;;;6.60;3.60;;;11.90;98.30;;;;;;5049782;28;20094;-67
2022/04/16 09:48:11;;;;;;;6.93;3.95;;;12.00;97.80;;;;;;5051549;28;20453;-66
2022/04/16 09:50:38;;;;;;;7.35;3.40;;;11.90;97.50;;;;;;5052093;28;20021;-68
2022/04/16 09:53:06;;;;;;;4.85;3.10;;;11.90;97.20;;;;;;5051967;28;20094;-67
2022/04/16 09:55:31;;;;;;;6.07;3.75;;;12.00;96.90;;;;;;5045452;28;20026;-69
2022/04/16 09:57:58;;;;;;;8.75;4.72;;;11.90;97.90;;;;;;5050344;28;20112;-67
2022/04/16 10:00:25;;;;;;;5.75;3.78;;;11.80;98.00;;;;;;5044364;28;21064;-72
2022/04/16 10:02:53;;;;;;;6.78;3.88;;;11.70;97.80;;;;;;5045000;28;20056;-72
2022/04/16 10:05:29;;;;;;;5.65;3.72;;;11.80;97.80;;;;;;5041371;28;20108;-72
2022/04/16 10:07:55;;;;;;;6.32;3.85;;;12.00;97.90;;;;;;5045347;28;20032;-72
2022/04/16 10:13:31;;;;;;;6.13;3.67;;;12.10;97.50;;;;;;5026213;28;20211;-72
2022/04/16 10:15:57;;;;;;;5.18;3.33;;;12.30;97.30;;;;;;5043570;28;20045;-72
2022/04/16 10:18:26;;;;;;;4.82;3.15;;;12.30;96.50;;;;;;5045128;28;20025;-72
2022/04/16 10:21:00;;;;;;;5.93;3.75;;;12.40;96.50;;;;;;5046720;28;20025;-72
2022/04/16 10:23:32;;;;;;;4.93;3.08;;;12.30;95.80;;;;;;5048809;28;20036;-74
2022/04/16 10:26:09;;;;;;;5.57;3.47;;;12.20;95.90;;;;;;5043802;28;20053;-73
2022/04/16 10:29:00;;;;;;;4.63;3.30;;;12.00;96.40;;;;;;5043477;28;20099;-72
2022/04/16 10:31:28;;;;;;;5.97;3.80;;;12.10;96.50;;;;;;5045561;28;20071;-72
2022/04/16 10:34:04;;;;;;;5.03;3.30;;;12.00;96.40;;;;;;5042115;28;20094;-73
2022/04/16 10:36:40;;;;;;;5.43;3.25;;;12.00;96.50;;;;;;5046085;28;20083;-73
2022/04/16 10:39:13;;;;;;;8.10;4.00;;;11.90;96.40;;;;;;5038959;28;20550;-73
2022/04/16 10:41:55;;;;;;;6.93;3.90;;;11.90;96.40;;;;;;5042256;28;20049;-73
2022/04/16 10:44:22;;;;;;;4.95;3.28;;;11.80;96.80;;;;;;5045760;28;20040;-73
2022/04/16 10:46:49;;;;;;;7.05;3.95;;;11.80;97.10;;;;;;5045290;28;20033;-73
2022/04/16 10:49:17;;;;;;;6.05;3.92;;;11.80;96.90;;;;;;5042283;28;20030;-72
2022/04/16 10:51:52;;;;;;;6.03;3.60;;;11.80;96.50;;;;;;5048374;28;20025;-72
2022/04/16 10:54:36;;;;;;;5.78;3.85;;;11.70;96.90;;;;;;5049201;28;20485;-72
2022/04/16 10:57:08;;;;;;;7.78;3.13;;;11.70;97.10;;;;;;5048632;28;20485;-72
2022/04/16 10:59:36;;;;;;;6.57;3.90;;;11.80;96.90;;;;;;5046561;28;20033;-72
2022/04/16 11:02:01;;;;;;;6.57;3.97;;;11.90;97.00;;;;;;5043389;28;20088;-73
2022/04/16 11:04:27;;;;;;;6.13;4.05;;;12.10;96.60;;;;;;5056736;28;20512;-72
2022/04/16 11:06:58;;;;;;;7.20;4.85;;;12.10;97.00;;;;;;5044836;28;20079;-73
2022/04/16 11:09:23;;;;;;;17.25;7.28;;;12.20;97.60;;;;;;5046084;28;20139;-72
2022/04/16 11:11:52;;;;;;;9.32;5.20;;;12.20;97.20;;;;;;5047629;28;20066;-73
2022/04/16 11:14:25;;;;;;;13.02;5.75;;;12.30;97.20;;;;;;5044157;28;20028;-73
2022/04/16 11:16:54;;;;;;;7.55;3.65;;;12.40;97.30;;;;;;5066703;28;20024;-73
2022/04/16 11:19:19;;;;;;;8.75;4.43;;;12.50;96.90;;;;;;5044830;28;20114;-73
2022/04/16 11:21:45;;;;;;;9.50;4.85;;;12.60;96.50;;;;;;5041913;28;20163;-72
2022/04/16 11:24:11;;;;;;;6.28;3.70;;;12.50;96.50;;;;;;5047371;28;20442;-73
2022/04/16 11:34:55;;;;;;;5.80;3.15;;;12.70;94.80;;;;;;5048515;28;20508;-73
2022/04/16 11:37:29;;;;;;;8.98;4.80;;;12.80;94.30;;;;;;5045376;28;20048;-73
2022/04/16 11:40:05;;;;;;;6.13;3.97;;;12.80;94.30;;;;;;5042229;28;20062;-73
2022/04/16 11:42:35;;;;;;;5.38;3.38;;;12.70;94.00;;;;;;5043368;28;20560;-73
2022/04/16 11:45:00;;;;;;;7.75;4.30;;;12.80;93.60;;;;;;5048630;28;20113;-72
2022/04/16 11:47:28;;;;;;;5.32;3.55;;;12.70;93.50;;;;;;5043338;28;20100;-73
2022/04/16 11:49:57;;;;;;;5.75;3.88;;;12.70;93.60;;;;;;5046170;28;20021;-72
2022/04/16 11:52:48;;;;;;;6.15;3.88;;;12.90;93.40;;;;;;5045113;28;20025;-73
2022/04/16 11:55:17;;;;;;;5.78;3.72;;;13.10;93.40;;;;;;5044242;28;20439;-72
2022/04/16 11:57:53;;;;;;;7.85;4.07;;;13.20;93.20;;;;;;5045410;28;20017;-73
2022/04/16 12:00:23;;;;;;;6.53;4.00;;;13.20;92.50;;;;;;5045620;28;20025;-73
2022/04/16 12:02:55;;;;;;;5.22;3.72;;;13.30;92.70;;;;;;5043349;28;20486;-73
2022/04/16 12:05:26;;;;;;;5.35;3.38;;;13.40;92.30;;;;;;5044365;28;20053;-73
2022/04/16 12:07:55;;;;;;;5.70;3.78;;;13.40;91.70;;;;;;5043260;28;20112;-73
2022/04/16 12:10:24;;;;;;;5.50;4.07;;;13.30;92.40;;;;;;5044474;28;20022;-73
2022/04/16 12:12:56;;;;;;;7.90;5.10;;;13.30;92.80;;;;;;5043590;28;20025;-73
2022/04/16 12:15:28;;;;;;;5.75;4.07;;;13.30;93.40;;;;;;5046185;28;20017;-73
2022/04/16 12:17:56;;;;;;;5.78;4.18;;;13.30;92.90;;;;;;5042445;28;20013;-73
2022/04/16 12:20:25;;;;;;;5.75;3.88;;;13.20;93.00;;;;;;5043574;28;20043;-73
2022/04/16 12:23:02;;;;;;;5.85;3.90;;;13.30;92.60;;;;;;5043983;28;20331;-73
2022/04/16 12:25:29;;;;;;;6.65;4.00;;;13.30;92.40;;;;;;5066724;28;20025;-72
2022/04/16 12:27:59;;;;;;;6.22;3.65;;;13.20;91.90;;;;;;5044453;28;20122;-73
2022/04/16 12:30:28;;;;;;;5.45;3.72;;;13.30;91.90;;;;;;5039766;28;20028;-73
2022/04/16 12:33:01;;;;;;;5.75;4.15;;;13.30;92.10;;;;;;5044975;28;20013;-73
2022/04/16 12:35:32;;;;;;;4.93;3.28;;;13.30;91.60;;;;;;5044224;28;20032;-73
2022/04/16 12:38:05;;;;;;;5.05;3.40;;;13.20;91.10;;;;;;5042606;28;20035;-73
2022/04/16 12:40:32;;;;;;;5.22;3.30;;;13.30;90.70;;;;;;5039833;28;20033;-73
2022/04/16 12:42:59;;;;;;;6.50;3.53;;;13.40;90.50;;;;;;5043861;28;20354;-73
2022/04/16 12:45:25;;;;;;;4.95;3.03;;;13.30;90.10;;;;;;5044474;28;20091;-73
2022/04/16 12:47:55;;;;;;;5.60;3.70;;;13.40;90.30;;;;;;5048865;22;20057;-71
2022/04/16 12:50:21;;;;;;;5.85;3.35;;;13.30;90.80;;;;;;5028462;28;20025;-71
2022/04/16 12:52:55;;;;;;;6.63;3.67;;;13.40;90.70;;;;;;5028836;28;20028;-72
2022/04/16 12:55:21;;;;;;;5.07;3.38;;;13.40;90.60;;;;;;5032490;28;20027;-71
2022/04/16 12:57:50;;;;;;;8.35;3.90;;;13.30;90.70;;;;;;5025856;28;20452;-71
2022/04/16 13:00:16;;;;;;;5.15;3.47;;;13.30;90.60;;;;;;5028209;28;20030;-71
2022/04/16 13:02:44;;;;;;;4.63;3.63;;;13.30;90.70;;;;;;5045606;28;20025;-71
2022/04/16 13:05:19;;;;;;;6.00;3.70;;;13.30;90.80;;;;;;5027826;28;20028;-71
2022/04/16 13:07:48;;;;;;;5.82;3.75;;;13.40;90.80;;;;;;5024885;28;20034;-71
2022/04/16 13:10:14;;;;;;;6.35;3.53;;;13.30;90.80;;;;;;5029713;28;20053;-72
2022/04/16 13:12:41;;;;;;;5.60;3.63;;;13.20;90.70;;;;;;5045418;28;20030;-72
2022/04/16 13:15:10;;;;;;;7.57;4.35;;;13.40;90.60;;;;;;5025506;28;20083;-71
2022/04/16 13:17:36;;;;;;;6.07;2.85;;;13.30;90.30;;;;;;5032365;28;20033;-72
2022/04/16 13:20:03;;;;;;;6.70;4.70;;;13.20;90.40;;;;;;5028152;28;20494;-72
2022/04/16 13:22:29;;;;;;;6.13;3.67;;;13.20;90.70;;;;;;5028566;28;20018;-71